Time;durP1;ratioP1;P1;durP2;ratioP2;P2;SDS_P1;SDS_P2;PMS_P1;PMS_P2;Temp;Humidity;BMP_temperature;BMP_pressure;BME280_temperature;BME280_humidity;BME280_pressure;Samples;Min_cycle;Max_cycle;Signal;HPM_P1;HPM_P2
2022/01/01 00:02:03;;;;;;;113.35;62.00;;;;;;;7.64;74.80;100150.78;4470052;32;35185;-70
2022/01/01 00:04:51;;;;;;;103.00;59.35;;;;;;;7.87;74.23;100147.50;4469933;32;34629;-70
2022/01/01 00:07:18;;;;;;;105.45;57.40;;;;;;;7.67;74.42;100144.16;4470027;32;33724;-70
2022/01/01 00:09:46;;;;;;;93.97;54.58;;;;;;;7.47;74.71;100145.09;4469926;32;34683;-70
2022/01/01 00:12:15;;;;;;;87.75;53.83;;;;;;;7.69;73.74;100142.03;4470046;32;34199;-70
2022/01/01 00:14:42;;;;;;;97.43;54.22;;;;;;;7.59;73.36;100137.12;4469799;32;33994;-70
2022/01/01 00:17:10;;;;;;;90.57;53.13;;;;;;;7.75;72.73;100149.25;4463485;32;33550;-70
2022/01/01 00:19:39;;;;;;;88.75;54.17;;;;;;;7.40;73.45;100145.13;4469875;32;33487;-70
2022/01/01 00:22:07;;;;;;;86.50;49.40;;;;;;;7.51;72.54;100145.50;4469922;32;34080;-70
2022/01/01 00:24:34;;;;;;;80.12;48.22;;;;;;;7.35;72.60;100142.28;4469713;32;34732;-70
2022/01/01 00:27:02;;;;;;;88.97;49.00;;;;;;;7.10;73.21;100123.31;4468670;32;34198;-70
2022/01/01 00:29:30;;;;;;;81.97;47.80;;;;;;;6.25;76.37;100125.37;4469959;32;33711;-70
2022/01/01 00:31:57;;;;;;;79.15;46.95;;;;;;;6.95;73.90;100131.75;4469572;32;33523;-70
2022/01/01 00:34:25;;;;;;;83.43;47.83;;;;;;;6.75;73.59;100120.19;4469966;32;33963;-70
2022/01/01 00:36:53;;;;;;;82.97;48.13;;;;;;;6.64;74.45;100116.31;4469954;32;33467;-70
2022/01/01 00:39:20;;;;;;;79.70;45.35;;;;;;;7.00;72.73;100104.09;4469712;32;34041;-70
2022/01/01 00:41:48;;;;;;;85.18;47.55;;;;;;;6.40;74.84;100125.13;4469801;32;35076;-69
2022/01/01 00:44:15;;;;;;;116.00;61.17;;;;;;;6.30;75.23;100117.47;4469746;32;33944;-70
2022/01/01 00:46:42;;;;;;;78.07;45.35;;;;;;;6.86;73.70;100118.69;4469339;32;33254;-70
2022/01/01 00:49:10;;;;;;;94.05;54.17;;;;;;;7.08;71.98;100117.31;4469639;32;34068;-70
2022/01/01 00:51:38;;;;;;;99.00;53.67;;;;;;;6.63;73.77;100117.38;4469804;32;34040;-69
2022/01/01 00:54:05;;;;;;;89.95;51.10;;;;;;;6.11;75.62;100125.41;4469282;32;34109;-70
2022/01/01 00:56:33;;;;;;;81.10;45.35;;;;;;;6.39;74.86;100123.44;4469611;32;33363;-70
2022/01/01 00:59:00;;;;;;;99.50;53.78;;;;;;;6.55;74.01;100121.13;4469585;32;34063;-70
2022/01/01 01:01:27;;;;;;;89.35;47.67;;;;;;;7.21;71.21;100126.38;4469474;32;35027;-70
2022/01/01 01:03:55;;;;;;;86.20;49.63;;;;;;;6.47;74.04;100118.66;4469747;32;33996;-70
2022/01/01 01:06:22;;;;;;;90.65;49.00;;;;;;;6.43;74.24;100138.16;4469728;32;33390;-70
2022/01/01 01:08:53;;;;;;;94.25;50.70;;;;;;;6.71;73.21;100141.38;4469305;32;34877;-70
2022/01/01 01:11:21;;;;;;;85.57;47.67;;;;;;;6.85;72.24;100150.25;4469625;32;34174;-70
2022/01/01 01:13:56;;;;;;;88.85;49.92;;;;;;;6.28;74.13;100158.09;4469573;32;34048;-69
2022/01/01 01:16:26;;;;;;;79.22;45.47;;;;;;;6.35;73.96;100140.06;4469221;32;33027;-70
2022/01/01 01:18:54;;;;;;;68.55;37.45;;;;;;;6.93;72.44;100139.22;4469531;32;34026;-70
2022/01/01 01:21:22;;;;;;;55.65;31.05;;;;;;;5.83;76.80;100139.06;4468392;32;35021;-70
2022/01/01 01:23:51;;;;;;;48.90;28.00;;;;;;;5.46;80.98;100140.50;4468108;32;34850;-70
2022/01/01 01:26:18;;;;;;;51.17;30.10;;;;;;;6.23;77.80;100143.59;4469155;32;33463;-70
2022/01/01 01:28:48;;;;;;;66.82;34.63;;;;;;;6.77;75.85;100137.81;4469211;32;34880;-70
2022/01/01 01:31:17;;;;;;;47.92;25.70;;;;;;;7.04;75.28;100132.31;4469284;32;34001;-70
2022/01/01 01:33:45;;;;;;;39.60;23.40;;;;;;;6.53;77.40;100131.28;4469471;32;34211;-70
2022/01/01 01:36:12;;;;;;;46.72;26.40;;;;;;;6.07;78.36;100134.94;4469410;32;33612;-70
2022/01/01 01:38:40;;;;;;;49.70;30.27;;;;;;;5.99;79.28;100143.22;4468377;32;33865;-70
2022/01/01 01:41:09;;;;;;;54.03;31.08;;;;;;;6.28;77.88;100152.69;4469281;32;35081;-70
2022/01/01 01:43:36;;;;;;;43.35;25.77;;;;;;;6.57;75.97;100153.25;4468833;32;34608;-70
2022/01/01 01:46:05;;;;;;;45.65;27.90;;;;;;;6.53;76.20;100142.06;4467831;32;33473;-70
2022/01/01 01:48:35;;;;;;;37.33;23.42;;;;;;;6.24;78.09;100139.84;4469095;32;33960;-70
2022/01/01 01:51:03;;;;;;;34.53;21.50;;;;;;;6.64;77.83;100140.56;4468863;32;33769;-69
2022/01/01 01:53:32;;;;;;;34.33;18.67;;;;;;;6.63;77.63;100132.69;4468959;32;33948;-70
2022/01/01 01:56:00;;;;;;;24.35;14.15;;;;;;;6.68;77.93;100139.09;4468888;32;34111;-70
2022/01/01 01:58:30;;;;;;;27.83;14.95;;;;;;;6.83;79.63;100135.31;4468636;32;34790;-70
2022/01/01 02:03:38;;;;;;;28.38;15.05;;;;;;;7.26;78.84;100153.56;4468721;32;34794;-70
2022/01/01 02:06:06;;;;;;;23.52;14.32;;;;;;;6.83;81.19;100140.72;4468857;32;33901;-70
2022/01/01 02:08:34;;;;;;;28.33;17.48;;;;;;;7.24;80.96;100142.97;4468845;32;33958;-70
2022/01/01 02:11:03;;;;;;;22.83;14.02;;;;;;;7.70;78.53;100141.81;4467331;32;34311;-70
2022/01/01 02:13:39;;;;;;;24.10;14.55;;;;;;;6.86;80.18;100137.59;4468838;32;33926;-70
2022/01/01 02:18:48;;;;;;;32.83;18.73;;;;;;;7.06;78.64;100141.03;4468615;32;33951;-70
2022/01/01 02:21:18;;;;;;;29.85;17.12;;;;;;;7.04;78.10;100151.19;4468623;32;34391;-70
2022/01/01 02:23:46;;;;;;;25.37;15.32;;;;;;;7.18;77.27;100141.97;4468175;32;34137;-70
2022/01/01 02:26:15;;;;;;;23.85;14.57;;;;;;;7.37;76.15;100148.28;4468609;32;33792;-70
2022/01/01 02:28:45;;;;;;;25.60;15.10;;;;;;;7.55;75.15;100152.09;4468090;32;34812;-70
2022/01/01 02:31:14;;;;;;;26.80;15.45;;;;;;;7.33;75.11;100154.34;4467539;32;34320;-70
2022/01/01 02:33:42;;;;;;;34.20;19.02;;;;;;;7.58;74.01;100157.06;4468818;32;34092;-70
2022/01/01 02:36:10;;;;;;;31.42;16.27;;;;;;;7.34;75.00;100167.62;4468058;32;33701;-70
2022/01/01 02:38:38;;;;;;;44.72;25.73;;;;;;;7.54;75.51;100158.56;4468280;32;34683;-70
2022/01/01 02:41:05;;;;;;;23.45;14.43;;;;;;;7.22;76.64;100149.66;4467917;32;33972;-70
2022/01/01 02:43:43;;;;;;;36.05;20.08;;;;;;;7.48;75.56;100151.34;4468073;32;34653;-70
2022/01/01 02:46:10;;;;;;;22.30;13.30;;;;;;;7.71;75.13;100148.87;4468579;32;33548;-70
2022/01/01 02:48:38;;;;;;;31.42;19.65;;;;;;;7.49;75.85;100145.69;4468080;32;33953;-70
2022/01/01 02:51:06;;;;;;;22.25;13.85;;;;;;;7.41;77.50;100140.59;4470384;32;34004;-70
2022/01/01 02:53:33;;;;;;;24.70;14.18;;;;;;;7.29;79.47;100143.16;4469072;32;33881;-69
2022/01/01 02:56:00;;;;;;;25.50;15.15;;;;;;;7.52;79.69;100139.88;4470581;32;33215;-70
2022/01/01 02:58:28;;;;;;;20.35;12.35;;;;;;;7.44;81.07;100132.03;4470322;32;33446;-69
2022/01/01 03:00:55;;;;;;;18.55;10.77;;;;;;;7.75;80.37;100131.19;4470710;32;33430;-70
2022/01/01 03:03:23;;;;;;;16.73;9.32;;;;;;;7.90;81.47;100135.41;4470836;32;34802;-70
2022/01/01 03:05:50;;;;;;;14.15;8.20;;;;;;;8.21;80.75;100137.22;4470437;32;32556;-70
2022/01/01 03:08:18;;;;;;;13.65;8.20;;;;;;;8.54;80.61;100138.75;4470477;32;33843;-70
2022/01/01 03:10:47;;;;;;;15.73;7.85;;;;;;;8.72;80.14;100137.91;4470593;32;34215;-70
2022/01/01 03:13:14;;;;;;;13.00;7.85;;;;;;;8.97;79.83;100140.50;4470291;32;35080;-70
2022/01/01 03:15:42;;;;;;;15.63;7.82;;;;;;;9.05;79.68;100153.72;4470535;32;33546;-71
2022/01/01 03:18:10;;;;;;;11.93;7.07;;;;;;;9.09;80.29;100143.25;4470017;32;33892;-70
2022/01/01 03:20:37;;;;;;;15.10;8.00;;;;;;;9.15;79.93;100153.97;4470392;32;34997;-70
2022/01/01 03:23:05;;;;;;;11.60;7.18;;;;;;;9.08;80.63;100155.16;4470133;32;34703;-70
2022/01/01 03:25:32;;;;;;;12.10;7.00;;;;;;;9.25;79.42;100150.72;4470302;32;34149;-70
2022/01/01 03:28:00;;;;;;;11.35;6.62;;;;;;;9.59;78.12;100161.88;4470708;32;33932;-70
2022/01/01 03:30:27;;;;;;;10.02;6.00;;;;;;;9.70;77.49;100154.84;4470259;32;35049;-70
2022/01/01 03:32:55;;;;;;;9.75;6.18;;;;;;;9.54;78.09;100154.47;4470226;32;34799;-70
2022/01/01 03:35:22;;;;;;;9.75;6.47;;;;;;;9.46;78.89;100157.53;4470570;32;33719;-70
2022/01/01 03:37:50;;;;;;;11.50;6.62;;;;;;;9.64;78.37;100167.44;4470313;32;33426;-70
2022/01/01 03:40:17;;;;;;;9.93;6.45;;;;;;;9.37;79.25;100154.31;4470563;32;35217;-70
2022/01/01 03:42:45;;;;;;;11.40;6.57;;;;;;;9.48;78.44;100165.41;4470326;32;33562;-70
2022/01/01 03:45:12;;;;;;;12.25;6.65;;;;;;;9.88;76.98;100172.91;4470281;32;32742;-70
2022/01/01 03:47:40;;;;;;;10.93;6.30;;;;;;;9.67;76.97;100174.28;4469905;32;34624;-72
2022/01/01 03:50:07;;;;;;;11.93;6.03;;;;;;;9.75;77.13;100179.37;4469003;32;33824;-71
2022/01/01 03:52:35;;;;;;;10.60;6.45;;;;;;;9.79;76.84;100172.44;4470289;32;34637;-71
2022/01/01 03:55:03;;;;;;;13.05;6.57;;;;;;;9.79;76.89;100167.81;4468748;32;33178;-73
2022/01/01 03:57:30;;;;;;;10.93;6.65;;;;;;;9.96;76.06;100175.28;4470201;32;33823;-73
2022/01/01 03:59:57;;;;;;;11.12;6.45;;;;;;;10.17;74.77;100179.28;4470084;32;34175;-71
2022/01/01 04:02:25;;;;;;;12.65;5.97;;;;;;;10.22;75.05;100182.13;4469632;32;34961;-70
2022/01/01 04:04:53;;;;;;;11.52;6.10;;;;;;;10.17;75.06;100190.13;4470139;32;33810;-72
2022/01/01 04:07:20;;;;;;;11.15;6.55;;;;;;;9.82;76.60;100190.91;4470330;32;33980;-72
2022/01/01 04:09:48;;;;;;;10.98;6.03;;;;;;;9.54;78.10;100186.97;4469985;32;35089;-69
2022/01/01 04:12:16;;;;;;;11.60;7.20;;;;;;;9.72;77.64;100187.94;4470067;32;34817;-70
2022/01/01 04:14:43;;;;;;;10.82;6.03;;;;;;;9.81;77.05;100190.09;4469956;32;33579;-72
2022/01/01 04:17:11;;;;;;;8.55;5.47;;;;;;;10.33;74.85;100196.78;4469853;32;33261;-72
2022/01/01 04:19:42;;;;;;;11.32;5.87;;;;;;;10.25;75.18;100197.91;4469768;32;35063;-72
2022/01/01 04:22:11;;;;;;;8.10;5.28;;;;;;;9.89;76.85;100198.94;4469835;32;34006;-72
2022/01/01 04:24:40;;;;;;;10.13;6.18;;;;;;;10.01;76.08;100208.75;4468612;32;33411;-72
2022/01/01 04:27:08;;;;;;;10.25;6.37;;;;;;;10.07;75.92;100215.12;4469848;32;34850;-72
2022/01/01 04:29:35;;;;;;;11.15;5.78;;;;;;;9.96;76.23;100211.34;4470035;32;34066;-72
2022/01/01 04:32:03;;;;;;;7.85;5.43;;;;;;;10.18;75.35;100218.91;4469687;32;33868;-69
2022/01/01 04:34:31;;;;;;;8.45;5.43;;;;;;;9.98;75.97;100214.66;4469977;32;34239;-71
2022/01/01 04:37:05;;;;;;;7.60;5.12;;;;;;;9.99;75.33;100213.56;4469959;32;34785;-72
2022/01/01 04:39:32;;;;;;;11.00;5.78;;;;;;;10.07;75.56;100212.41;4469761;32;35442;-72
2022/01/01 04:42:00;;;;;;;8.23;4.90;;;;;;;9.82;76.23;100215.31;4469786;32;33821;-71
2022/01/01 04:44:27;;;;;;;8.90;5.20;;;;;;;9.98;75.90;100203.81;4469684;32;34248;-71
2022/01/01 04:46:56;;;;;;;8.35;5.18;;;;;;;10.00;76.20;100201.69;4469927;32;32299;-71
2022/01/01 04:49:23;;;;;;;7.05;4.65;;;;;;;10.03;76.31;100205.81;4469475;32;34295;-69
2022/01/01 04:51:50;;;;;;;7.20;4.78;;;;;;;10.09;76.09;100209.47;4469712;32;35058;-72
2022/01/01 04:54:18;;;;;;;7.90;4.55;;;;;;;10.05;75.69;100217.25;4469469;32;33826;-70
2022/01/01 04:56:47;;;;;;;7.10;3.95;;;;;;;10.04;76.65;100221.00;4468781;32;34097;-72
2022/01/01 04:59:16;;;;;;;8.00;4.35;;;;;;;9.91;77.21;100223.94;4469758;32;34190;-72
2022/01/01 05:01:44;;;;;;;6.22;3.80;;;;;;;10.37;75.54;100208.81;4476197;32;33919;-69
2022/01/01 05:04:13;;;;;;;6.60;4.40;;;;;;;10.18;76.02;100211.59;4484603;32;33605;-72
2022/01/01 05:06:41;;;;;;;7.35;4.40;;;;;;;10.04;76.75;100213.72;4484875;32;33761;-72
2022/01/01 05:09:09;;;;;;;7.22;3.70;;;;;;;10.22;76.14;100201.94;4485081;32;34150;-71
2022/01/01 05:11:36;;;;;;;6.22;3.58;;;;;;;10.23;75.90;100197.31;4483614;32;33974;-71
2022/01/01 05:14:04;;;;;;;6.40;3.92;;;;;;;10.38;75.67;100197.72;4484252;32;34316;-72
2022/01/01 05:16:32;;;;;;;6.32;3.78;;;;;;;10.29;75.55;100199.13;4485157;32;34794;-72
2022/01/01 05:18:59;;;;;;;7.20;4.00;;;;;;;10.20;76.17;100195.09;4485408;32;34415;-72
2022/01/01 05:21:32;;;;;;;7.15;3.85;;;;;;;10.10;76.92;100208.41;4480507;32;34554;-70
2022/01/01 05:24:01;;;;;;;6.15;3.45;;;;;;;10.19;76.46;100207.00;4476456;31;33485;-70
2022/01/01 05:26:28;;;;;;;6.60;4.00;;;;;;;10.27;76.45;100210.19;4482947;32;33725;-69
2022/01/01 05:28:56;;;;;;;6.25;3.83;;;;;;;10.25;76.33;100200.63;4483337;32;34186;-70
2022/01/01 05:31:27;;;;;;;6.22;3.70;;;;;;;10.45;75.20;100206.56;4481707;32;33673;-69
2022/01/01 05:33:55;;;;;;;6.55;3.70;;;;;;;10.30;75.69;100206.19;4483464;32;33408;-68
2022/01/01 05:36:24;;;;;;;5.87;3.30;;;;;;;10.36;76.11;100197.13;4483713;32;33718;-70
2022/01/01 05:38:53;;;;;;;8.20;3.40;;;;;;;10.09;77.06;100202.16;4482665;32;33178;-68
2022/01/01 05:41:20;;;;;;;7.62;3.62;;;;;;;9.99;77.37;100204.62;4483228;32;34009;-69
2022/01/01 05:43:49;;;;;;;7.03;3.30;;;;;;;10.36;76.07;100196.31;4483493;32;34644;-70
2022/01/01 05:46:17;;;;;;;6.35;3.30;;;;;;;10.53;75.23;100201.84;4475521;32;33837;-68
2022/01/01 05:48:45;;;;;;;5.57;3.42;;;;;;;10.48;75.60;100207.16;4482967;32;34132;-70
2022/01/01 05:51:15;;;;;;;5.37;3.40;;;;;;;10.68;74.49;100203.00;4483210;32;33946;-69
2022/01/01 05:53:42;;;;;;;6.35;3.08;;;;;;;10.38;75.68;100202.31;4481036;32;33607;-69
2022/01/01 05:56:09;;;;;;;6.15;3.50;;;;;;;10.54;75.28;100214.31;4482922;32;33849;-68
2022/01/01 05:58:37;;;;;;;6.40;3.25;;;;;;;10.48;75.48;100218.84;4483251;32;35187;-69
2022/01/01 06:01:04;;;;;;;6.05;3.35;;;;;;;10.35;76.23;100228.03;4483190;32;33779;-69
2022/01/01 06:03:32;;;;;;;6.00;3.22;;;;;;;10.32;75.94;100230.37;4482992;32;33237;-68
2022/01/01 06:06:00;;;;;;;6.12;3.30;;;;;;;10.46;75.29;100229.91;4482917;32;34411;-69
2022/01/01 06:08:47;;;;;;;6.72;3.37;;;;;;;10.48;75.21;100237.00;4481140;32;33621;-69
2022/01/01 06:11:15;;;;;;;6.18;3.60;;;;;;;10.85;73.60;100232.94;4483224;32;33900;-70
2022/01/01 06:13:42;;;;;;;5.75;3.08;;;;;;;10.64;74.77;100249.84;4480664;32;34330;-68
2022/01/01 06:16:10;;;;;;;4.57;3.08;;;;;;;10.68;74.58;100246.41;4483808;32;34718;-70
2022/01/01 06:18:37;;;;;;;6.47;2.80;;;;;;;10.73;73.95;100248.41;4484164;32;34293;-69
2022/01/01 06:21:06;;;;;;;6.37;3.75;;;;;;;10.41;75.10;100254.22;4484179;32;34081;-71
2022/01/01 06:23:37;;;;;;;5.95;3.40;;;;;;;10.29;75.85;100252.53;4484393;32;33489;-70
2022/01/01 06:26:04;;;;;;;5.78;3.30;;;;;;;10.43;75.21;100259.38;4484437;32;34004;-72
2022/01/01 06:28:32;;;;;;;5.12;3.15;;;;;;;10.39;75.67;100278.03;4486656;32;34178;-72
2022/01/01 06:31:00;;;;;;;6.25;3.53;;;;;;;10.29;76.06;100272.34;4486097;32;35120;-72
2022/01/01 06:33:27;;;;;;;5.47;3.37;;;;;;;10.48;75.21;100264.13;4486595;32;33253;-72
2022/01/01 06:35:58;;;;;;;5.43;3.30;;;;;;;10.43;75.48;100273.78;4486679;32;33968;-71
2022/01/01 06:38:25;;;;;;;5.20;3.33;;;;;;;10.26;75.76;100279.06;4485620;32;35068;-71
2022/01/01 06:40:53;;;;;;;6.62;3.17;;;;;;;10.08;77.03;100287.25;4486066;32;33615;-74
2022/01/01 06:43:23;;;;;;;5.20;3.28;;;;;;;10.50;75.09;100284.53;4486401;32;34153;-72
2022/01/01 06:45:50;;;;;;;6.00;3.10;;;;;;;10.29;75.97;100279.66;4486229;32;34001;-69
2022/01/01 06:48:18;;;;;;;4.68;2.87;;;;;;;10.55;75.01;100281.09;4486650;32;34016;-69
2022/01/01 06:50:45;;;;;;;6.00;3.03;;;;;;;10.42;75.30;100280.28;4486160;32;33371;-68
2022/01/01 06:53:13;;;;;;;6.82;3.40;;;;;;;10.56;75.04;100293.59;4485646;32;33082;-69
2022/01/01 06:55:40;;;;;;;4.78;2.83;;;;;;;10.30;75.88;100290.25;4486230;32;34115;-70
2022/01/01 06:58:08;;;;;;;7.40;3.22;;;;;;;10.69;74.24;100298.81;4486255;32;34208;-70
2022/01/01 07:00:37;;;;;;;5.72;3.12;;;;;;;10.87;73.38;100297.87;4486210;32;33640;-70
2022/01/01 07:03:05;;;;;;;5.22;2.90;;;;;;;10.78;73.99;100307.44;4486277;32;34270;-69
2022/01/01 07:05:32;;;;;;;5.78;3.65;;;;;;;10.84;73.53;100315.44;4486119;32;34945;-70
2022/01/01 07:08:00;;;;;;;5.78;3.12;;;;;;;10.80;73.97;100313.44;4485768;32;34241;-70
2022/01/01 07:10:28;;;;;;;5.32;3.30;;;;;;;10.54;75.10;100323.69;4486295;32;34723;-70
2022/01/01 07:12:55;;;;;;;6.22;3.00;;;;;;;10.76;74.54;100323.94;4486163;32;33657;-70
2022/01/01 07:15:23;;;;;;;5.20;2.80;;;;;;;10.82;73.93;100320.28;4486062;32;34750;-70
2022/01/01 07:17:50;;;;;;;6.32;3.03;;;;;;;10.81;74.27;100332.19;4486116;32;34965;-68
2022/01/01 07:20:18;;;;;;;5.82;2.58;;;;;;;10.90;73.82;100321.81;4485791;32;34177;-68
2022/01/01 07:22:46;;;;;;;4.50;2.75;;;;;;;11.02;73.25;100332.69;4486047;32;33756;-68
2022/01/01 07:25:14;;;;;;;5.72;2.80;;;;;;;11.54;71.42;100340.84;4486376;32;33896;-69
2022/01/01 07:27:41;;;;;;;6.05;3.50;;;;;;;11.72;70.12;100347.16;4485847;32;35083;-68
2022/01/01 07:30:10;;;;;;;11.93;5.97;;;;;;;12.01;68.83;100359.75;4486102;32;34069;-71
2022/01/01 07:32:45;;;;;;;13.40;5.85;;;;;;;11.66;69.73;100354.38;4477975;32;33471;-67
2022/01/01 07:35:14;;;;;;;6.90;4.15;;;;;;;11.93;68.76;100362.84;4469391;32;34002;-66
2022/01/01 07:37:42;;;;;;;6.40;3.60;;;;;;;11.47;69.97;100364.62;4469893;32;34192;-66
2022/01/01 07:40:11;;;;;;;56.80;22.48;;;;;;;11.28;71.08;100372.91;4470009;32;34089;-66
2022/01/01 07:42:39;;;;;;;24.70;11.25;;;;;;;11.59;69.21;100376.28;4469976;32;33451;-67
2022/01/01 07:45:08;;;;;;;20.52;8.70;;;;;;;11.66;69.09;100379.69;4469989;32;34061;-66
2022/01/01 07:47:36;;;;;;;18.15;7.97;;;;;;;11.64;69.09;100375.53;4469578;32;35312;-70
2022/01/01 07:50:05;;;;;;;25.52;11.12;;;;;;;11.64;69.34;100376.41;4479428;31;33497;-69
2022/01/01 07:52:32;;;;;;;91.22;38.47;;;;;;;11.44;70.34;100386.81;4485103;32;33575;-70
2022/01/01 07:55:00;;;;;;;8.25;4.68;;;;;;;12.28;67.73;100386.34;4484096;32;34104;-69
2022/01/01 07:57:29;;;;;;;25.58;11.10;;;;;;;12.06;68.50;100394.38;4485573;32;35113;-70
2022/01/01 07:59:56;;;;;;;9.30;4.90;;;;;;;12.32;67.66;100393.75;4485262;32;34636;-69
2022/01/01 08:02:24;;;;;;;16.62;8.45;;;;;;;12.56;66.90;100398.25;4484759;32;33480;-70
2022/01/01 08:04:52;;;;;;;6.22;4.00;;;;;;;12.55;67.35;100397.44;4485570;32;34103;-69
2022/01/01 08:07:19;;;;;;;5.00;2.92;;;;;;;12.31;67.84;100396.75;4485529;32;34274;-73
2022/01/01 08:10:08;;;;;;;8.55;4.95;;;;;;;13.28;64.88;100401.06;4485601;32;34237;-71
2022/01/01 08:12:35;;;;;;;6.82;3.12;;;;;;;13.01;66.12;100409.06;4485760;32;33699;-71
2022/01/01 08:15:04;;;;;;;4.93;2.97;;;;;;;13.17;65.65;100406.56;4485384;32;33891;-68
2022/01/01 08:17:32;;;;;;;11.23;4.60;;;;;;;13.70;64.34;100418.81;4485168;32;34370;-70
2022/01/01 08:19:59;;;;;;;7.18;3.75;;;;;;;14.10;63.71;100420.34;4485293;32;33866;-69
2022/01/01 08:22:27;;;;;;;5.78;3.10;;;;;;;14.00;63.94;100421.09;4485284;32;33488;-67
2022/01/01 08:24:54;;;;;;;23.50;11.23;;;;;;;14.23;61.13;100421.88;4485365;32;34167;-66
2022/01/01 08:27:22;;;;;;;21.08;9.10;;;;;;;14.21;60.93;100424.03;4479481;32;35027;-65
2022/01/01 08:29:49;;;;;;;6.57;3.67;;;;;;;14.51;60.21;100434.44;4469605;32;33847;-71
2022/01/01 08:32:17;;;;;;;5.05;2.90;;;;;;;14.16;61.15;100436.53;4469451;32;33329;-68
2022/01/01 08:34:44;;;;;;;5.65;3.05;;;;;;;14.15;61.31;100437.63;4469714;32;34777;-69
2022/01/01 08:37:12;;;;;;;13.40;7.15;;;;;;;13.95;61.96;100430.03;4469599;32;34990;-69
2022/01/01 08:39:39;;;;;;;6.60;3.40;;;;;;;14.58;60.67;100435.09;4469193;32;33790;-68
2022/01/01 08:42:09;;;;;;;6.18;2.95;;;;;;;14.85;60.63;100432.31;4469848;32;34176;-69
2022/01/01 08:44:37;;;;;;;3.87;2.75;;;;;;;15.13;60.02;100435.81;4469576;32;33792;-69
2022/01/01 08:47:04;;;;;;;3.97;2.42;;;;;;;15.82;57.71;100440.37;4468220;32;34783;-70
2022/01/01 08:49:32;;;;;;;4.07;2.50;;;;;;;15.98;57.21;100431.13;4469655;32;34670;-68
2022/01/01 08:51:59;;;;;;;3.95;2.20;;;;;;;16.20;56.66;100433.66;4468743;32;33610;-70
2022/01/01 08:54:28;;;;;;;3.42;2.10;;;;;;;16.78;54.31;100438.97;4469721;32;33827;-70
2022/01/01 08:56:56;;;;;;;3.95;2.08;;;;;;;16.05;55.70;100439.09;4469840;32;34227;-68
2022/01/01 08:59:29;;;;;;;6.50;2.20;;;;;;;16.43;56.26;100450.69;4469401;32;34662;-69
2022/01/01 09:01:57;;;;;;;4.53;2.40;;;;;;;17.34;54.46;100448.28;4469410;32;33654;-71
2022/01/01 09:04:25;;;;;;;3.00;1.90;;;;;;;17.94;51.60;100451.19;4469363;32;34148;-70
2022/01/01 09:06:53;;;;;;;4.10;2.12;;;;;;;17.59;53.25;100450.16;4481445;32;35081;-68
2022/01/01 09:09:21;;;;;;;4.22;2.20;;;;;;;16.17;56.67;100458.00;4485329;32;33928;-69
2022/01/01 09:11:54;;;;;;;3.78;2.35;;;;;;;16.25;57.13;100457.50;4484892;32;34180;-70
2022/01/01 09:14:21;;;;;;;2.83;1.77;;;;;;;16.95;54.56;100468.06;4485179;32;34889;-71
2022/01/01 09:16:49;;;;;;;3.90;2.33;;;;;;;16.53;55.48;100469.09;4485199;32;34285;-72
2022/01/01 09:19:19;;;;;;;3.72;2.00;;;;;;;15.41;57.91;100464.72;4484776;32;33930;-75
2022/01/01 09:21:46;;;;;;;4.10;2.65;;;;;;;16.28;56.00;100461.63;4484676;32;33558;-75
2022/01/01 09:24:14;;;;;;;4.20;2.35;;;;;;;16.56;55.29;100461.13;4484919;32;34687;-76
2022/01/01 09:26:41;;;;;;;4.75;2.40;;;;;;;16.37;56.15;100463.56;4483508;32;34303;-71
2022/01/01 09:29:10;;;;;;;4.62;2.20;;;;;;;16.57;55.84;100468.25;4483947;32;33612;-78
2022/01/01 09:31:38;;;;;;;5.55;3.22;;;;;;;16.43;56.96;100461.66;4484829;32;33503;-72
2022/01/01 09:34:06;;;;;;;5.62;3.10;;;;;;;16.76;54.64;100457.63;4484689;32;33753;-71
2022/01/01 09:36:34;;;;;;;4.07;2.55;;;;;;;16.78;54.62;100473.75;4485352;32;34330;-77
2022/01/01 09:39:03;;;;;;;4.20;2.58;;;;;;;16.57;54.76;100470.19;4483550;32;34781;-70
2022/01/01 09:41:31;;;;;;;4.60;2.45;;;;;;;17.59;51.85;100475.69;4483411;32;33427;-73
2022/01/01 09:43:59;;;;;;;3.08;1.85;;;;;;;17.51;52.64;100469.94;4484671;32;34788;-72
2022/01/01 09:46:26;;;;;;;7.28;2.80;;;;;;;17.66;51.80;100467.16;4483548;32;34119;-71
2022/01/01 09:48:55;;;;;;;3.95;2.87;;;;;;;16.92;53.02;100471.34;4484462;32;34325;-73
2022/01/01 09:51:23;;;;;;;2.83;2.00;;;;;;;17.14;52.81;100471.06;4483401;32;33620;-73
2022/01/01 09:53:50;;;;;;;3.65;2.28;;;;;;;16.71;53.78;100470.47;4485169;32;34873;-72
2022/01/01 09:56:18;;;;;;;3.45;2.00;;;;;;;16.73;53.94;100465.53;4484674;32;34094;-73
2022/01/01 09:58:45;;;;;;;10.20;5.72;;;;;;;16.08;56.16;100468.66;4485538;32;34015;-73
2022/01/01 10:01:14;;;;;;;4.62;2.58;;;;;;;15.78;57.66;100461.94;4486524;31;33362;-70
2022/01/01 10:03:45;;;;;;;3.70;2.08;;;;;;;15.72;57.98;100465.78;4486610;32;33829;-73
2022/01/01 10:06:15;;;;;;;3.22;2.22;;;;;;;16.04;56.66;100470.28;4486712;32;34260;-72
2022/01/01 10:08:56;;;;;;;3.50;2.00;;;;;;;15.56;57.83;100472.22;4485331;32;34813;-71
2022/01/01 10:11:24;;;;;;;7.53;4.53;;;;;;;16.10;56.46;100473.88;4485440;32;33187;-73
2022/01/01 10:13:53;;;;;;;10.27;5.62;;;;;;;15.59;58.20;100477.97;4485398;32;34047;-73
2022/01/01 10:16:20;;;;;;;7.45;3.83;;;;;;;15.81;57.63;100468.84;4485141;32;33732;-72
2022/01/01 10:18:51;;;;;;;5.15;2.80;;;;;;;15.70;57.91;100462.44;4486586;32;33861;-72
2022/01/01 10:21:26;;;;;;;3.87;2.60;;;;;;;15.53;58.62;100475.47;4486273;32;33565;-72
2022/01/01 10:23:56;;;;;;;2.95;1.87;;;;;;;15.43;58.96;100483.63;4485289;32;34536;-73
2022/01/01 10:29:28;;;;;;;4.68;2.58;;;;;;;14.83;60.75;100464.53;4486457;32;33901;-72
2022/01/01 10:32:07;;;;;;;4.07;2.30;;;;;;;14.67;61.75;100460.84;4486559;32;34277;-73
2022/01/01 10:34:45;;;;;;;3.65;2.45;;;;;;;14.78;61.59;100469.97;4486479;32;34874;-71
2022/01/01 10:37:33;;;;;;;2.50;1.98;;;;;;;14.79;61.79;100471.59;4485444;31;34122;-73
2022/01/01 10:40:01;;;;;;;2.97;1.90;;;;;;;15.33;60.35;100467.94;4485090;32;34308;-74
2022/01/01 10:42:29;;;;;;;4.07;1.90;;;;;;;15.07;60.08;100472.41;4484772;32;33659;-76
2022/01/01 10:44:56;;;;;;;14.65;8.05;;;;;;;15.01;59.31;100481.63;4485068;32;34009;-74
2022/01/01 10:47:30;;;;;;;9.38;5.10;;;;;;;14.97;61.48;100481.34;4485096;32;33978;-74
2022/01/01 10:52:47;;;;;;;18.15;11.43;;;;;;;15.02;60.96;100480.56;4469359;32;33645;-68
2022/01/01 10:55:15;;;;;;;10.35;6.20;;;;;;;15.13;60.31;100485.84;4469397;32;34685;-69
2022/01/01 10:57:55;;;;;;;6.95;4.45;;;;;;;15.22;59.45;100491.66;4469338;32;35128;-67
2022/01/01 11:00:25;;;;;;;5.60;3.67;;;;;;;15.52;59.08;100492.97;4469111;32;35180;-64
2022/01/01 11:02:54;;;;;;;5.25;2.95;;;;;;;15.06;59.91;100481.69;4469195;32;33505;-67
2022/01/01 11:05:33;;;;;;;5.03;2.80;;;;;;;15.36;59.03;100484.66;4468705;32;34831;-68
2022/01/01 11:08:03;;;;;;;4.00;2.25;;;;;;;15.83;58.10;100485.81;4469326;32;35050;-63
2022/01/01 11:10:31;;;;;;;3.50;2.17;;;;;;;15.46;58.74;100494.81;4468491;32;34741;-67
2022/01/01 11:12:59;;;;;;;3.10;2.28;;;;;;;15.89;58.03;100490.19;4469294;32;33523;-63
2022/01/01 11:15:27;;;;;;;4.07;2.35;;;;;;;15.78;58.30;100485.75;4469208;32;34641;-70
2022/01/01 11:17:56;;;;;;;3.65;2.25;;;;;;;15.62;58.47;100495.78;4473817;32;35009;-67
2022/01/01 11:20:26;;;;;;;3.33;2.20;;;;;;;15.89;57.39;100492.94;4484294;32;33945;-64
2022/01/01 11:22:54;;;;;;;3.12;2.30;;;;;;;15.86;57.51;100484.44;4484413;32;34357;-66
2022/01/01 11:25:21;;;;;;;3.40;2.20;;;;;;;15.83;57.10;100480.34;4483585;32;33739;-67
2022/01/01 11:27:49;;;;;;;4.68;2.87;;;;;;;15.31;58.89;100489.25;4484941;32;35104;-66
2022/01/01 11:30:16;;;;;;;4.87;2.42;;;;;;;15.27;58.53;100497.16;4484560;32;33887;-66
2022/01/01 11:32:50;;;;;;;6.72;3.70;;;;;;;15.27;58.61;100493.59;4484482;32;34531;-66
2022/01/01 11:35:22;;;;;;;7.53;3.72;;;;;;;14.97;60.02;100486.81;4484528;32;33704;-62
2022/01/01 11:38:07;;;;;;;6.62;3.42;;;;;;;14.78;60.41;100475.44;4483485;32;33826;-62
2022/01/01 11:40:56;;;;;;;5.80;2.80;;;;;;;14.96;60.29;100480.50;4484647;32;33974;-66